sensor_id;sensor_type;location;lat;lon;timestamp;pressure;altitude;pressure_sealevel;temperature;humidity
17505;BME280;8870;50.950;11.762;2023-05-13T00:04:55;98617.56;;;12.05;100.00
17505;BME280;8870;50.950;11.762;2023-05-13T00:10:27;98612.81;;;11.98;100.00
17505;BME280;8870;50.950;11.762;2023-05-13T00:15:45;98613.78;;;11.89;100.00
17505;BME280;8870;50.950;11.762;2023-05-13T00:21:18;98607.50;;;11.80;100.00
17505;BME280;8870;50.950;11.762;2023-05-13T00:26:37;98616.59;;;11.79;100.00
17505;BME280;8870;50.950;11.762;2023-05-13T00:32:08;98618.78;;;11.76;100.00
17505;BME280;8870;50.950;11.762;2023-05-13T00:37:41;98611.88;;;11.73;100.00
17505;BME280;8870;50.950;11.762;2023-05-13T00:43:00;98621.13;;;11.70;100.00
17505;BME280;8870;50.950;11.762;2023-05-13T00:48:31;98615.22;;;11.67;100.00
17505;BME280;8870;50.950;11.762;2023-05-13T00:53:53;98613.38;;;11.67;100.00
17505;BME280;8870;50.950;11.762;2023-05-13T00:59:26;98612.88;;;11.64;100.00
17505;BME280;8870;50.950;11.762;2023-05-13T01:04:56;98607.09;;;11.50;100.00
17505;BME280;8870;50.950;11.762;2023-05-13T01:10:37;98601.81;;;11.40;100.00
17505;BME280;8870;50.950;11.762;2023-05-13T01:16:00;98615.09;;;11.34;100.00
17505;BME280;8870;50.950;11.762;2023-05-13T01:21:37;98623.16;;;11.25;100.00
17505;BME280;8870;50.950;11.762;2023-05-13T01:26:57;98626.75;;;11.08;100.00
17505;BME280;8870;50.950;11.762;2023-05-13T01:32:29;98627.88;;;10.97;100.00
17505;BME280;8870;50.950;11.762;2023-05-13T01:38:04;98628.66;;;10.89;100.00
17505;BME280;8870;50.950;11.762;2023-05-13T01:43:27;98638.22;;;10.84;100.00
17505;BME280;8870;50.950;11.762;2023-05-13T01:48:59;98643.22;;;10.78;100.00
17505;BME280;8870;50.950;11.762;2023-05-13T01:54:22;98642.88;;;10.73;100.00
17505;BME280;8870;50.950;11.762;2023-05-13T01:59:55;98655.34;;;10.74;100.00
17505;BME280;8870;50.950;11.762;2023-05-13T02:05:16;98648.56;;;10.70;100.00
17505;BME280;8870;50.950;11.762;2023-05-13T02:10:57;98643.50;;;10.67;100.00
17505;BME280;8870;50.950;11.762;2023-05-13T02:16:16;98638.09;;;10.67;100.00
17505;BME280;8870;50.950;11.762;2023-05-13T02:21:48;98640.78;;;10.67;100.00
17505;BME280;8870;50.950;11.762;2023-05-13T02:27:09;98631.88;;;10.67;100.00
17505;BME280;8870;50.950;11.762;2023-05-13T02:32:42;98633.72;;;10.66;100.00
17505;BME280;8870;50.950;11.762;2023-05-13T02:38:00;98642.13;;;10.63;100.00
17505;BME280;8870;50.950;11.762;2023-05-13T02:43:34;98638.44;;;10.64;100.00
17505;BME280;8870;50.950;11.762;2023-05-13T02:48:53;98648.34;;;10.63;100.00
17505;BME280;8870;50.950;11.762;2023-05-13T02:54:24;98637.88;;;10.60;100.00
17505;BME280;8870;50.950;11.762;2023-05-13T02:59:45;98625.19;;;10.53;100.00
17505;BME280;8870;50.950;11.762;2023-05-13T03:05:16;98627.69;;;10.46;100.00
17505;BME280;8870;50.950;11.762;2023-05-13T03:10:37;98627.28;;;10.41;100.00
17505;BME280;8870;50.950;11.762;2023-05-13T03:16:10;98627.47;;;10.39;100.00
17505;BME280;8870;50.950;11.762;2023-05-13T03:21:29;98633.84;;;10.38;100.00
17505;BME280;8870;50.950;11.762;2023-05-13T03:27:00;98628.72;;;10.35;100.00
17505;BME280;8870;50.950;11.762;2023-05-13T03:32:21;98638.09;;;10.31;100.00
17505;BME280;8870;50.950;11.762;2023-05-13T03:37:53;98630.34;;;10.28;100.00
17505;BME280;8870;50.950;11.762;2023-05-13T03:43:16;98623.97;;;10.29;100.00
17505;BME280;8870;50.950;11.762;2023-05-13T03:48:53;98638.09;;;10.31;100.00
17505;BME280;8870;50.950;11.762;2023-05-13T03:54:12;98629.34;;;10.29;100.00
17505;BME280;8870;50.950;11.762;2023-05-13T03:59:44;98634.19;;;10.25;100.00
17505;BME280;8870;50.950;11.762;2023-05-13T04:05:05;98640.72;;;10.23;100.00
17505;BME280;8870;50.950;11.762;2023-05-13T04:10:38;98647.97;;;10.22;100.00
17505;BME280;8870;50.950;11.762;2023-05-13T04:15:56;98648.28;;;10.19;100.00
17505;BME280;8870;50.950;11.762;2023-05-13T04:21:30;98656.88;;;10.23;100.00
17505;BME280;8870;50.950;11.762;2023-05-13T04:26:49;98658.28;;;10.27;100.00
17505;BME280;8870;50.950;11.762;2023-05-13T04:32:21;98670.41;;;10.31;100.00
17505;BME280;8870;50.950;11.762;2023-05-13T04:37:41;98675.66;;;10.32;100.00
17505;BME280;8870;50.950;11.762;2023-05-13T04:43:13;98677.91;;;10.37;100.00
17505;BME280;8870;50.950;11.762;2023-05-13T04:48:33;98673.31;;;10.47;100.00
17505;BME280;8870;50.950;11.762;2023-05-13T04:54:11;98675.94;;;10.57;100.00
17505;BME280;8870;50.950;11.762;2023-05-13T04:59:30;98675.28;;;10.63;100.00
17505;BME280;8870;50.950;11.762;2023-05-13T05:05:02;98685.47;;;10.70;100.00
17505;BME280;8870;50.950;11.762;2023-05-13T05:10:23;98688.53;;;10.75;100.00
17505;BME280;8870;50.950;11.762;2023-05-13T05:15:56;98694.13;;;10.82;100.00
17505;BME280;8870;50.950;11.762;2023-05-13T05:21:14;98691.84;;;10.87;100.00
17505;BME280;8870;50.950;11.762;2023-05-13T05:26:50;98707.75;;;10.98;100.00
17505;BME280;8870;50.950;11.762;2023-05-13T05:32:16;98708.81;;;11.05;100.00
17505;BME280;8870;50.950;11.762;2023-05-13T05:37:48;98707.72;;;11.16;100.00
17505;BME280;8870;50.950;11.762;2023-05-13T05:43:09;98711.47;;;11.23;100.00
17505;BME280;8870;50.950;11.762;2023-05-13T05:48:43;98718.47;;;11.34;100.00
17505;BME280;8870;50.950;11.762;2023-05-13T05:54:01;98721.88;;;11.45;100.00
17505;BME280;8870;50.950;11.762;2023-05-13T05:59:34;98731.41;;;11.57;100.00
17505;BME280;8870;50.950;11.762;2023-05-13T06:04:53;98720.66;;;11.65;100.00
17505;BME280;8870;50.950;11.762;2023-05-13T06:10:25;98712.09;;;11.78;100.00
17505;BME280;8870;50.950;11.762;2023-05-13T06:15:46;98705.59;;;11.97;100.00
17505;BME280;8870;50.950;11.762;2023-05-13T06:21:18;98699.41;;;12.13;100.00
17505;BME280;8870;50.950;11.762;2023-05-13T06:26:36;98697.47;;;12.32;100.00
17505;BME280;8870;50.950;11.762;2023-05-13T06:32:11;98686.69;;;12.57;100.00
17505;BME280;8870;50.950;11.762;2023-05-13T06:37:44;98680.25;;;12.83;100.00
17505;BME280;8870;50.950;11.762;2023-05-13T06:43:02;98684.81;;;13.07;100.00
17505;BME280;8870;50.950;11.762;2023-05-13T06:48:40;98688.66;;;13.29;100.00
17505;BME280;8870;50.950;11.762;2023-05-13T06:53:59;98677.63;;;13.55;100.00
17505;BME280;8870;50.950;11.762;2023-05-13T06:59:31;98688.06;;;13.75;100.00
17505;BME280;8870;50.950;11.762;2023-05-13T07:04:52;98688.97;;;13.99;100.00
17505;BME280;8870;50.950;11.762;2023-05-13T07:10:25;98689.25;;;14.12;100.00
17505;BME280;8870;50.950;11.762;2023-05-13T07:15:43;98685.41;;;14.30;100.00
17505;BME280;8870;50.950;11.762;2023-05-13T07:21:16;98679.53;;;14.49;100.00
17505;BME280;8870;50.950;11.762;2023-05-13T07:26:35;98677.69;;;14.65;100.00
17505;BME280;8870;50.950;11.762;2023-05-13T07:32:06;98675.25;;;14.78;100.00
17505;BME280;8870;50.950;11.762;2023-05-13T07:37:28;98679.53;;;14.96;100.00
17505;BME280;8870;50.950;11.762;2023-05-13T07:43:00;98670.19;;;15.14;100.00
17505;BME280;8870;50.950;11.762;2023-05-13T07:48:18;98670.03;;;15.30;100.00
17505;BME280;8870;50.950;11.762;2023-05-13T07:53:51;98669.38;;;15.43;100.00
17505;BME280;8870;50.950;11.762;2023-05-13T07:59:11;98669.31;;;15.66;100.00
17505;BME280;8870;50.950;11.762;2023-05-13T08:04:43;98664.03;;;15.80;100.00
17505;BME280;8870;50.950;11.762;2023-05-13T08:10:05;98679.31;;;15.96;100.00
17505;BME280;8870;50.950;11.762;2023-05-13T08:15:36;98668.91;;;15.99;100.00
17505;BME280;8870;50.950;11.762;2023-05-13T08:20:55;98669.81;;;16.07;100.00
17505;BME280;8870;50.950;11.762;2023-05-13T08:26:29;98668.22;;;16.12;100.00
17505;BME280;8870;50.950;11.762;2023-05-13T08:31:54;98669.03;;;16.28;100.00
17505;BME280;8870;50.950;11.762;2023-05-13T08:37:25;98671.44;;;16.38;100.00
17505;BME280;8870;50.950;11.762;2023-05-13T08:42:46;98669.81;;;16.43;100.00
17505;BME280;8870;50.950;11.762;2023-05-13T08:48:18;98670.13;;;16.55;100.00
17505;BME280;8870;50.950;11.762;2023-05-13T08:53:38;98670.47;;;16.67;100.00
17505;BME280;8870;50.950;11.762;2023-05-13T08:59:12;98665.09;;;16.74;100.00
17505;BME280;8870;50.950;11.762;2023-05-13T09:04:31;98675.41;;;16.78;100.00
17505;BME280;8870;50.950;11.762;2023-05-13T09:10:04;98663.94;;;16.83;100.00
17505;BME280;8870;50.950;11.762;2023-05-13T09:15:27;98662.38;;;16.96;100.00
17505;BME280;8870;50.950;11.762;2023-05-13T09:21:21;98655.75;;;17.05;100.00
17505;BME280;8870;50.950;11.762;2023-05-13T09:26:41;98657.06;;;17.09;100.00
17505;BME280;8870;50.950;11.762;2023-05-13T09:32:15;98661.94;;;17.20;100.00
17505;BME280;8870;50.950;11.762;2023-05-13T09:37:47;98656.34;;;17.29;100.00
17505;BME280;8870;50.950;11.762;2023-05-13T09:43:05;98659.38;;;17.47;100.00
17505;BME280;8870;50.950;11.762;2023-05-13T09:48:42;98655.22;;;17.51;100.00
17505;BME280;8870;50.950;11.762;2023-05-13T09:54:04;98656.91;;;17.52;100.00
17505;BME280;8870;50.950;11.762;2023-05-13T09:59:35;98651.53;;;17.66;100.00
17505;BME280;8870;50.950;11.762;2023-05-13T10:04:56;98656.63;;;17.82;100.00
17505;BME280;8870;50.950;11.762;2023-05-13T10:10:29;98647.13;;;18.07;100.00
17505;BME280;8870;50.950;11.762;2023-05-13T10:16:01;98652.66;;;18.27;100.00
17505;BME280;8870;50.950;11.762;2023-05-13T10:21:23;98650.38;;;18.37;100.00
17505;BME280;8870;50.950;11.762;2023-05-13T10:26:58;98638.81;;;18.35;100.00
17505;BME280;8870;50.950;11.762;2023-05-13T10:32:18;98643.41;;;18.21;100.00
17505;BME280;8870;50.950;11.762;2023-05-13T10:38:03;98633.78;;;18.32;99.66
17505;BME280;8870;50.950;11.762;2023-05-13T10:43:26;98630.25;;;18.65;100.00
17505;BME280;8870;50.950;11.762;2023-05-13T10:48:58;98629.22;;;18.73;88.71
17505;BME280;8870;50.950;11.762;2023-05-13T10:54:21;98631.34;;;19.04;96.02
17505;BME280;8870;50.950;11.762;2023-05-13T11:00:12;98640.56;;;19.30;92.36
17505;BME280;8870;50.950;11.762;2023-05-13T11:05:31;98636.16;;;19.29;89.03
17505;BME280;8870;50.950;11.762;2023-05-13T11:17:08;98631.75;;;18.68;94.67
17505;BME280;8870;50.950;11.762;2023-05-13T11:22:40;98638.00;;;18.55;91.86
17505;BME280;8870;50.950;11.762;2023-05-13T11:27:58;98639.72;;;18.83;95.77
17505;BME280;8870;50.950;11.762;2023-05-13T11:34:05;98627.75;;;18.70;82.33
17505;BME280;8870;50.950;11.762;2023-05-13T11:39:38;98638.03;;;18.68;95.36
17505;BME280;8870;50.950;11.762;2023-05-13T11:44:57;98630.88;;;18.67;100.00
17505;BME280;8870;50.950;11.762;2023-05-13T11:50:32;98620.84;;;18.94;94.77
17505;BME280;8870;50.950;11.762;2023-05-13T11:55:50;98618.03;;;19.42;100.00
17505;BME280;8870;50.950;11.762;2023-05-13T12:01:21;98627.69;;;19.51;97.20
17505;BME280;8870;50.950;11.762;2023-05-13T12:06:45;98629.25;;;19.06;80.08
17505;BME280;8870;50.950;11.762;2023-05-13T12:12:17;98624.19;;;18.63;91.43
17505;BME280;8870;50.950;11.762;2023-05-13T12:17:36;98633.41;;;18.55;99.96
17505;BME280;8870;50.950;11.762;2023-05-13T12:23:10;98640.53;;;18.50;96.54
17505;BME280;8870;50.950;11.762;2023-05-13T12:28:28;98641.78;;;18.60;100.00
17505;BME280;8870;50.950;11.762;2023-05-13T12:34:01;98643.47;;;18.55;98.23
17505;BME280;8870;50.950;11.762;2023-05-13T12:39:35;98653.34;;;18.76;99.39
17505;BME280;8870;50.950;11.762;2023-05-13T12:44:53;98654.84;;;18.92;100.00
17505;BME280;8870;50.950;11.762;2023-05-13T12:50:25;98652.34;;;18.97;100.00
17505;BME280;8870;50.950;11.762;2023-05-13T12:55:47;98645.84;;;19.05;100.00
17505;BME280;8870;50.950;11.762;2023-05-13T13:01:19;98656.53;;;19.20;100.00
17505;BME280;8870;50.950;11.762;2023-05-13T13:06:37;98653.19;;;19.04;100.00
17505;BME280;8870;50.950;11.762;2023-05-13T13:12:11;98654.63;;;18.93;100.00
17505;BME280;8870;50.950;11.762;2023-05-13T13:17:29;98651.31;;;18.98;100.00
17505;BME280;8870;50.950;11.762;2023-05-13T13:23:00;98654.03;;;18.98;100.00
17505;BME280;8870;50.950;11.762;2023-05-13T13:28:21;98653.16;;;19.24;100.00
17505;BME280;8870;50.950;11.762;2023-05-13T13:33:53;98657.13;;;19.35;98.79
17505;BME280;8870;50.950;11.762;2023-05-13T13:39:26;98649.31;;;19.52;88.22
17505;BME280;8870;50.950;11.762;2023-05-13T13:44:47;98641.28;;;19.71;88.49
17505;BME280;8870;50.950;11.762;2023-05-13T13:50:18;98640.69;;;20.21;80.94
17505;BME280;8870;50.950;11.762;2023-05-13T13:55:36;98634.63;;;20.51;78.13
17505;BME280;8870;50.950;11.762;2023-05-13T14:01:10;98637.59;;;20.43;66.02
17505;BME280;8870;50.950;11.762;2023-05-13T14:06:28;98628.00;;;21.16;69.26
17505;BME280;8870;50.950;11.762;2023-05-13T14:11:59;98612.09;;;21.69;64.59
17505;BME280;8870;50.950;11.762;2023-05-13T14:17:20;98612.81;;;21.95;62.40
17505;BME280;8870;50.950;11.762;2023-05-13T14:22:51;98609.03;;;22.26;57.59
17505;BME280;8870;50.950;11.762;2023-05-13T14:28:12;98609.06;;;22.38;58.83
17505;BME280;8870;50.950;11.762;2023-05-13T14:33:46;98607.66;;;22.78;56.89
17505;BME280;8870;50.950;11.762;2023-05-13T14:39:18;98613.50;;;22.82;57.41
17505;BME280;8870;50.950;11.762;2023-05-13T14:44:36;98610.50;;;22.83;56.83
17505;BME280;8870;50.950;11.762;2023-05-13T14:50:10;98618.63;;;22.90;55.78
17505;BME280;8870;50.950;11.762;2023-05-13T14:55:29;98616.66;;;23.21;57.97
17505;BME280;8870;50.950;11.762;2023-05-13T15:01:00;98618.69;;;23.26;57.76
17505;BME280;8870;50.950;11.762;2023-05-13T15:06:21;98625.22;;;23.13;56.64
17505;BME280;8870;50.950;11.762;2023-05-13T15:11:52;98618.16;;;22.81;57.09
17505;BME280;8870;50.950;11.762;2023-05-13T15:17:10;98622.03;;;22.50;62.00
17505;BME280;8870;50.950;11.762;2023-05-13T15:22:44;98628.97;;;22.03;62.07
17505;BME280;8870;50.950;11.762;2023-05-13T15:28:03;98620.38;;;21.81;63.93
17505;BME280;8870;50.950;11.762;2023-05-13T15:33:34;98625.41;;;21.84;63.22
17505;BME280;8870;50.950;11.762;2023-05-13T15:39:08;98623.06;;;21.69;61.62
17505;BME280;8870;50.950;11.762;2023-05-13T15:44:26;98627.78;;;21.62;62.49
17505;BME280;8870;50.950;11.762;2023-05-13T15:49:57;98622.22;;;21.68;61.57
17505;BME280;8870;50.950;11.762;2023-05-13T15:55:18;98620.84;;;21.78;60.77
17505;BME280;8870;50.950;11.762;2023-05-13T16:00:49;98609.19;;;21.82;60.67
17505;BME280;8870;50.950;11.762;2023-05-13T16:06:08;98612.94;;;21.25;59.75
17505;BME280;8870;50.950;11.762;2023-05-13T16:11:42;98608.97;;;21.03;60.00
17505;BME280;8870;50.950;11.762;2023-05-13T16:17:01;98600.88;;;20.57;62.15
17505;BME280;8870;50.950;11.762;2023-05-13T16:22:33;98597.84;;;20.08;62.19
17505;BME280;8870;50.950;11.762;2023-05-13T16:27:54;98602.66;;;19.61;65.45
17505;BME280;8870;50.950;11.762;2023-05-13T16:33:25;98602.66;;;19.54;74.50
17505;BME280;8870;50.950;11.762;2023-05-13T16:38:57;98597.66;;;19.37;80.39
17505;BME280;8870;50.950;11.762;2023-05-13T16:44:18;98594.97;;;19.17;86.57
17505;BME280;8870;50.950;11.762;2023-05-13T16:49:49;98594.38;;;19.15;87.85
17505;BME280;8870;50.950;11.762;2023-05-13T16:55:09;98587.78;;;19.36;88.32
17505;BME280;8870;50.950;11.762;2023-05-13T17:00:44;98598.69;;;19.50;87.54
17505;BME280;8870;50.950;11.762;2023-05-13T17:06:06;98594.66;;;19.59;93.72
17505;BME280;8870;50.950;11.762;2023-05-13T17:11:37;98599.72;;;19.49;92.29
17505;BME280;8870;50.950;11.762;2023-05-13T17:16:59;98596.22;;;18.88;87.79
17505;BME280;8870;50.950;11.762;2023-05-13T17:22:30;98593.09;;;18.51;93.21
17505;BME280;8870;50.950;11.762;2023-05-13T17:27:49;98589.69;;;18.22;100.00
17505;BME280;8870;50.950;11.762;2023-05-13T17:33:23;98594.22;;;17.94;100.00
17505;BME280;8870;50.950;11.762;2023-05-13T17:38:54;98595.91;;;17.95;100.00
17505;BME280;8870;50.950;11.762;2023-05-13T17:44:12;98605.56;;;17.98;100.00
17505;BME280;8870;50.950;11.762;2023-05-13T17:49:47;98600.19;;;18.18;100.00
17505;BME280;8870;50.950;11.762;2023-05-13T17:55:07;98598.91;;;18.21;100.00
17505;BME280;8870;50.950;11.762;2023-05-13T18:00:38;98607.41;;;17.91;100.00
17505;BME280;8870;50.950;11.762;2023-05-13T18:05:59;98611.78;;;17.78;100.00
17505;BME280;8870;50.950;11.762;2023-05-13T18:11:31;98606.97;;;17.38;100.00
17505;BME280;8870;50.950;11.762;2023-05-13T18:16:48;98608.31;;;17.21;100.00
17505;BME280;8870;50.950;11.762;2023-05-13T18:22:22;98614.56;;;16.86;100.00
17505;BME280;8870;50.950;11.762;2023-05-13T18:27:41;98614.59;;;16.43;100.00
17505;BME280;8870;50.950;11.762;2023-05-13T18:33:12;98630.25;;;16.19;100.00
17505;BME280;8870;50.950;11.762;2023-05-13T18:38:33;98626.75;;;15.89;100.00
17505;BME280;8870;50.950;11.762;2023-05-13T18:44:06;98634.47;;;15.55;100.00
17505;BME280;8870;50.950;11.762;2023-05-13T18:49:25;98642.13;;;15.36;100.00
17505;BME280;8870;50.950;11.762;2023-05-13T18:55:01;98648.94;;;15.17;100.00
17505;BME280;8870;50.950;11.762;2023-05-13T19:00:19;98648.56;;;15.05;100.00
17505;BME280;8870;50.950;11.762;2023-05-13T19:05:50;98657.25;;;14.86;100.00
17505;BME280;8870;50.950;11.762;2023-05-13T19:11:11;98658.03;;;14.71;100.00
17505;BME280;8870;50.950;11.762;2023-05-13T19:16:43;98667.59;;;14.59;100.00
17505;BME280;8870;50.950;11.762;2023-05-13T19:22:02;98666.41;;;14.38;100.00
17505;BME280;8870;50.950;11.762;2023-05-13T19:27:35;98677.31;;;14.22;100.00
17505;BME280;8870;50.950;11.762;2023-05-13T19:32:54;98672.50;;;14.09;100.00
17505;BME280;8870;50.950;11.762;2023-05-13T19:38:25;98682.72;;;13.98;100.00
17505;BME280;8870;50.950;11.762;2023-05-13T19:43:47;98677.50;;;13.89;100.00
17505;BME280;8870;50.950;11.762;2023-05-13T19:49:18;98680.41;;;13.79;100.00
17505;BME280;8870;50.950;11.762;2023-05-13T19:54:36;98678.56;;;13.71;100.00
17505;BME280;8870;50.950;11.762;2023-05-13T20:00:11;98685.88;;;13.70;100.00
17505;BME280;8870;50.950;11.762;2023-05-13T20:05:29;98686.06;;;13.69;100.00
17505;BME280;8870;50.950;11.762;2023-05-13T20:11:00;98687.91;;;13.68;100.00
17505;BME280;8870;50.950;11.762;2023-05-13T20:16:21;98680.97;;;13.66;100.00
17505;BME280;8870;50.950;11.762;2023-05-13T20:21:52;98680.31;;;13.64;100.00
17505;BME280;8870;50.950;11.762;2023-05-13T20:27:11;98677.78;;;13.62;100.00
17505;BME280;8870;50.950;11.762;2023-05-13T20:32:45;98670.50;;;13.63;100.00
17505;BME280;8870;50.950;11.762;2023-05-13T20:38:18;98671.50;;;13.62;100.00
17505;BME280;8870;50.950;11.762;2023-05-13T20:43:36;98671.50;;;13.62;100.00
17505;BME280;8870;50.950;11.762;2023-05-13T20:49:10;98674.22;;;13.62;100.00
17505;BME280;8870;50.950;11.762;2023-05-13T20:54:29;98668.13;;;13.60;100.00
17505;BME280;8870;50.950;11.762;2023-05-13T20:59:59;98666.09;;;13.62;100.00
17505;BME280;8870;50.950;11.762;2023-05-13T21:05:20;98668.13;;;13.60;100.00
17505;BME280;8870;50.950;11.762;2023-05-13T21:10:51;98666.44;;;13.59;100.00
17505;BME280;8870;50.950;11.762;2023-05-13T21:16:12;98669.50;;;13.55;100.00
17505;BME280;8870;50.950;11.762;2023-05-13T21:21:47;98662.41;;;13.54;100.00
17505;BME280;8870;50.950;11.762;2023-05-13T21:27:06;98667.81;;;13.54;100.00
17505;BME280;8870;50.950;11.762;2023-05-13T21:32:37;98663.78;;;13.50;100.00
17505;BME280;8870;50.950;11.762;2023-05-13T21:37:58;98669.03;;;13.44;100.00
17505;BME280;8870;50.950;11.762;2023-05-13T21:43:29;98669.41;;;13.40;100.00
17505;BME280;8870;50.950;11.762;2023-05-13T21:48:48;98657.34;;;13.35;100.00
17505;BME280;8870;50.950;11.762;2023-05-13T21:54:22;98668.16;;;13.35;100.00
17505;BME280;8870;50.950;11.762;2023-05-13T21:59:41;98673.75;;;13.33;100.00
17505;BME280;8870;50.950;11.762;2023-05-13T22:05:11;98663.63;;;13.35;100.00
17505;BME280;8870;50.950;11.762;2023-05-13T22:10:33;98666.66;;;13.32;100.00
17505;BME280;8870;50.950;11.762;2023-05-13T22:16:05;98660.41;;;13.32;100.00
17505;BME280;8870;50.950;11.762;2023-05-13T22:21:24;98663.97;;;13.32;100.00
17505;BME280;8870;50.950;11.762;2023-05-13T22:26:57;98659.75;;;13.30;100.00
17505;BME280;8870;50.950;11.762;2023-05-13T22:32:15;98651.66;;;13.21;100.00
17505;BME280;8870;50.950;11.762;2023-05-13T22:37:46;98659.78;;;13.21;100.00
17505;BME280;8870;50.950;11.762;2023-05-13T22:43:09;98647.59;;;13.17;100.00
17505;BME280;8870;50.950;11.762;2023-05-13T22:48:41;98645.59;;;13.11;100.00
17505;BME280;8870;50.950;11.762;2023-05-13T22:54:00;98649.81;;;13.05;100.00
17505;BME280;8870;50.950;11.762;2023-05-13T22:59:34;98650.66;;;13.06;100.00
17505;BME280;8870;50.950;11.762;2023-05-13T23:04:53;98652.69;;;13.04;100.00
17505;BME280;8870;50.950;11.762;2023-05-13T23:10:23;98646.09;;;12.98;100.00
17505;BME280;8870;50.950;11.762;2023-05-13T23:15:44;98644.94;;;12.92;100.00
17505;BME280;8870;50.950;11.762;2023-05-13T23:21:15;98634.13;;;12.92;100.00
17505;BME280;8870;50.950;11.762;2023-05-13T23:26:34;98627.03;;;12.83;100.00
17505;BME280;8870;50.950;11.762;2023-05-13T23:32:08;98628.72;;;12.76;100.00
17505;BME280;8870;50.950;11.762;2023-05-13T23:37:27;98633.13;;;12.69;100.00
17505;BME280;8870;50.950;11.762;2023-05-13T23:42:57;98625.72;;;12.62;100.00
17505;BME280;8870;50.950;11.762;2023-05-13T23:48:18;98615.75;;;12.55;100.00
17505;BME280;8870;50.950;11.762;2023-05-13T23:53:52;98616.06;;;12.52;100.00
17505;BME280;8870;50.950;11.762;2023-05-13T23:59:10;98607.47;;;12.40;100.00
